Time;durP1;ratioP1;P1;durP2;ratioP2;P2;SDS_P1;SDS_P2;PMS_P1;PMS_P2;Temp;Humidity;BMP_temperature;BMP_pressure;BME280_temperature;BME280_humidity;BME280_pressure;Samples;Min_cycle;Max_cycle;Signal;HPM_P1;HPM_P2
2023/03/25 00:00:17;;;;;;;16.55;3.45;;;16.80;1.00;;;;;;5095256;28;20036;-37
2023/03/25 00:02:49;;;;;;;12.52;2.90;;;16.80;1.00;;;;;;5094572;28;20037;-37
2023/03/25 00:05:19;;;;;;;11.25;2.97;;;16.80;1.00;;;;;;5095364;28;20111;-37
2023/03/25 00:07:49;;;;;;;15.55;4.10;;;16.80;1.00;;;;;;5095605;28;20036;-37
2023/03/25 00:10:17;;;;;;;16.85;3.78;;;16.80;1.00;;;;;;5095122;28;20044;-37
2023/03/25 00:12:43;;;;;;;21.77;3.40;;;16.80;1.00;;;;;;5094380;28;20495;-37
2023/03/25 00:15:12;;;;;;;10.77;2.78;;;16.80;1.00;;;;;;5095127;28;20044;-37
2023/03/25 00:17:39;;;;;;;18.25;3.03;;;16.80;1.00;;;;;;5095158;28;20059;-37
2023/03/25 00:20:08;;;;;;;22.15;4.28;;;16.80;1.00;;;;;;5094976;28;20044;-37
2023/03/25 00:22:40;;;;;;;19.85;4.05;;;16.80;1.00;;;;;;5094543;28;20086;-37
2023/03/25 00:25:16;;;;;;;17.17;4.07;;;16.80;1.00;;;;;;5094947;28;20058;-37
2023/03/25 00:27:45;;;;;;;14.75;3.03;;;16.80;1.00;;;;;;5095046;28;20404;-37
2023/03/25 00:30:13;;;;;;;13.80;3.53;;;16.70;1.00;;;;;;5093303;28;20036;-37
2023/03/25 00:32:40;;;;;;;18.20;2.92;;;16.70;1.00;;;;;;5092696;28;20044;-37
2023/03/25 00:35:07;;;;;;;16.63;3.03;;;16.70;1.00;;;;;;5093313;28;20511;-37
2023/03/25 00:37:34;;;;;;;15.57;3.65;;;16.70;1.00;;;;;;5093363;28;20043;-37
2023/03/25 00:40:02;;;;;;;14.40;2.80;;;16.70;1.00;;;;;;5094671;28;20399;-37
2023/03/25 00:42:29;;;;;;;16.58;3.33;;;16.70;1.00;;;;;;5094184;28;20055;-37
2023/03/25 00:44:56;;;;;;;12.55;3.20;;;16.70;1.00;;;;;;5092773;28;20040;-37
2023/03/25 00:47:23;;;;;;;16.85;4.40;;;16.70;1.00;;;;;;5093024;28;20052;-37
2023/03/25 00:49:50;;;;;;;16.55;3.70;;;16.70;1.00;;;;;;5094348;28;20415;-37
2023/03/25 00:52:18;;;;;;;11.38;3.15;;;16.70;1.00;;;;;;5092695;28;20087;-37
2023/03/25 00:54:45;;;;;;;14.82;3.72;;;16.70;1.00;;;;;;5094025;28;20071;-37
2023/03/25 00:57:12;;;;;;;14.50;3.03;;;16.70;1.00;;;;;;5094357;28;20491;-37
2023/03/25 00:59:39;;;;;;;14.95;3.85;;;16.70;1.00;;;;;;5094336;28;20046;-37
2023/03/25 01:02:06;;;;;;;13.70;4.00;;;16.60;1.00;;;;;;5093901;28;20044;-37
2023/03/25 01:04:33;;;;;;;18.45;4.95;;;16.70;1.00;;;;;;5093495;28;20048;-37
2023/03/25 01:07:02;;;;;;;9.75;2.78;;;16.60;1.00;;;;;;5094124;28;20036;-37
2023/03/25 01:09:29;;;;;;;11.13;3.30;;;16.60;1.00;;;;;;5093939;28;20097;-37
2023/03/25 01:11:57;;;;;;;21.58;4.57;;;16.60;1.00;;;;;;5094068;28;20040;-37
2023/03/25 01:14:26;;;;;;;22.90;4.00;;;16.60;1.00;;;;;;5093148;28;20051;-37
2023/03/25 01:16:53;;;;;;;11.93;3.45;;;16.60;1.00;;;;;;5092626;28;20055;-37
2023/03/25 01:19:20;;;;;;;15.35;3.88;;;16.60;1.00;;;;;;5093758;28;20074;-37
2023/03/25 01:21:48;;;;;;;15.25;3.50;;;16.60;1.00;;;;;;5093747;28;20055;-37
2023/03/25 01:24:15;;;;;;;18.27;3.45;;;16.50;1.00;;;;;;5093007;28;20549;-37
2023/03/25 01:26:43;;;;;;;15.98;3.08;;;16.60;1.00;;;;;;5092508;28;20067;-37
2023/03/25 01:29:11;;;;;;;14.05;4.13;;;16.50;1.00;;;;;;5093486;28;20044;-37
2023/03/25 01:31:38;;;;;;;15.45;3.63;;;16.60;1.00;;;;;;5093827;28;20093;-37
2023/03/25 01:34:05;;;;;;;11.73;3.15;;;16.50;1.00;;;;;;5092868;28;20051;-37
2023/03/25 01:36:31;;;;;;;11.73;2.30;;;16.50;1.00;;;;;;5092279;28;20072;-37
2023/03/25 01:39:00;;;;;;;19.08;3.63;;;16.50;1.00;;;;;;5093413;28;20040;-37
2023/03/25 01:41:28;;;;;;;14.23;3.03;;;16.50;1.00;;;;;;5092673;28;20040;-37
2023/03/25 01:44:23;;;;;;;12.43;2.80;;;16.50;1.00;;;;;;5092717;28;20047;-37
2023/03/25 01:46:54;;;;;;;21.40;3.67;;;16.50;1.00;;;;;;5091898;28;20135;-37
2023/03/25 01:49:30;;;;;;;14.05;3.55;;;16.50;1.00;;;;;;5091861;28;20066;-37
2023/03/25 01:52:20;;;;;;;14.57;2.80;;;16.50;1.00;;;;;;5093156;28;20040;-37
2023/03/25 01:54:49;;;;;;;15.13;2.83;;;16.40;1.00;;;;;;5092820;28;20065;-37
2023/03/25 01:57:19;;;;;;;14.80;3.13;;;16.50;1.00;;;;;;5093153;28;20069;-37
2023/03/25 01:59:47;;;;;;;19.92;4.13;;;16.40;1.00;;;;;;5091757;28;20040;-37
2023/03/25 02:02:17;;;;;;;14.75;3.92;;;16.50;1.00;;;;;;5092627;28;20047;-37
2023/03/25 02:05:01;;;;;;;20.88;4.43;;;16.50;1.00;;;;;;5091567;28;20503;-37
2023/03/25 02:07:33;;;;;;;16.85;3.50;;;16.40;1.00;;;;;;5091766;28;20054;-37
2023/03/25 02:10:05;;;;;;;17.98;3.92;;;16.50;1.00;;;;;;5092855;28;20475;-37
2023/03/25 02:12:32;;;;;;;16.80;3.33;;;16.40;1.00;;;;;;5092606;28;20063;-37
2023/03/25 02:15:02;;;;;;;12.43;2.42;;;16.40;1.00;;;;;;5092395;28;20040;-38
2023/03/25 02:17:53;;;;;;;16.42;4.03;;;16.40;1.00;;;;;;5091439;28;20095;-37
2023/03/25 02:20:22;;;;;;;17.63;4.75;;;16.40;1.00;;;;;;5092718;28;20071;-38
2023/03/25 02:23:20;;;;;;;15.07;2.97;;;16.40;1.00;;;;;;5090628;28;20105;-37
2023/03/25 02:26:05;;;;;;;12.90;2.70;;;16.40;1.00;;;;;;5092965;28;20039;-37
2023/03/25 02:29:06;;;;;;;14.77;2.83;;;16.40;1.00;;;;;;5091203;28;20051;-37
2023/03/25 02:32:17;;;;;;;16.55;3.67;;;16.40;1.00;;;;;;5080660;28;20089;-37
2023/03/25 02:35:10;;;;;;;17.52;3.67;;;16.40;1.00;;;;;;5090742;28;20039;-37
2023/03/25 02:38:06;;;;;;;12.85;3.38;;;16.30;1.00;;;;;;5091225;28;20054;-37
2023/03/25 02:41:01;;;;;;;10.60;2.88;;;16.30;1.00;;;;;;5091159;28;20418;-37
2023/03/25 02:43:45;;;;;;;14.48;3.08;;;16.30;1.00;;;;;;5090415;28;20111;-37
2023/03/25 02:46:16;;;;;;;20.50;4.78;;;16.30;1.00;;;;;;5092213;28;20058;-37
2023/03/25 02:48:48;;;;;;;20.90;3.55;;;16.30;1.00;;;;;;5090879;28;20047;-37
2023/03/25 02:51:21;;;;;;;20.73;4.55;;;16.30;1.00;;;;;;5092324;28;20036;-37
2023/03/25 02:53:50;;;;;;;12.40;3.60;;;16.30;1.00;;;;;;5089286;28;20517;-37
2023/03/25 02:56:21;;;;;;;14.82;2.92;;;16.30;1.00;;;;;;5090901;28;20048;-37
2023/03/25 02:58:50;;;;;;;16.90;2.88;;;16.30;1.00;;;;;;5090784;28;20055;-37
2023/03/25 03:01:18;;;;;;;14.10;3.13;;;16.30;1.00;;;;;;5090815;28;20047;-37
2023/03/25 03:03:45;;;;;;;15.32;3.55;;;16.30;1.00;;;;;;5090296;28;20074;-37
2023/03/25 03:06:16;;;;;;;17.55;3.83;;;16.30;1.00;;;;;;5090849;28;20036;-37
2023/03/25 03:08:49;;;;;;;16.75;3.47;;;16.30;1.00;;;;;;5090793;28;20053;-37
2023/03/25 03:11:56;;;;;;;14.15;3.28;;;16.30;1.00;;;;;;5091950;28;20052;-37
2023/03/25 03:14:23;;;;;;;10.80;3.03;;;16.30;1.00;;;;;;5091248;28;20518;-37
2023/03/25 03:16:59;;;;;;;14.65;3.78;;;16.20;1.00;;;;;;5090871;28;20075;-37
2023/03/25 03:19:37;;;;;;;14.77;3.45;;;16.30;1.00;;;;;;5091872;28;20113;-37
2023/03/25 03:22:16;;;;;;;20.10;3.55;;;16.20;1.00;;;;;;5091795;28;20044;-37
2023/03/25 03:24:48;;;;;;;18.13;3.90;;;16.20;1.00;;;;;;5091723;28;20309;-37
2023/03/25 03:27:31;;;;;;;14.52;3.40;;;16.20;1.00;;;;;;5091939;28;20491;-37
2023/03/25 03:30:15;;;;;;;15.70;3.00;;;16.20;1.00;;;;;;5091743;28;20044;-37
2023/03/25 03:32:44;;;;;;;;;;;16.20;1.00;;;;;;5091747;28;20545;-37
2023/03/25 03:35:23;;;;;;;11.40;3.45;;;16.20;1.00;;;;;;5090560;28;19966;-37
2023/03/25 03:37:56;;;;;;;14.43;3.58;;;16.20;1.00;;;;;;5091875;28;20069;-37
2023/03/25 03:40:24;;;;;;;;;;;16.20;1.00;;;;;;5092064;28;20120;-37
2023/03/25 03:43:12;;;;;;;15.18;3.03;;;16.20;1.00;;;;;;5090981;28;19920;-37
2023/03/25 03:45:47;;;;;;;16.88;3.63;;;16.20;1.00;;;;;;5091759;28;20047;-37
2023/03/25 03:48:25;;;;;;;12.20;2.83;;;16.20;1.00;;;;;;5091540;28;20044;-38
2023/03/25 03:50:59;;;;;;;18.08;4.28;;;16.10;1.00;;;;;;5091670;28;20170;-37
2023/03/25 03:53:32;;;;;;;11.45;2.55;;;16.10;1.00;;;;;;5090888;28;20044;-37
2023/03/25 03:56:06;;;;;;;14.18;3.47;;;16.10;1.00;;;;;;5091748;28;20111;-37
2023/03/25 03:58:41;;;;;;;12.55;3.75;;;16.10;1.00;;;;;;5091471;28;20384;-37
2023/03/25 04:01:18;;;;;;;18.20;4.90;;;16.10;1.00;;;;;;5091450;28;20052;-37
2023/03/25 04:03:59;;;;;;;12.30;3.08;;;16.10;1.00;;;;;;5090893;28;20119;-37
2023/03/25 04:06:40;;;;;;;20.70;2.97;;;16.10;1.00;;;;;;5095359;28;20093;-37
2023/03/25 04:09:27;;;;;;;17.52;4.68;;;16.10;1.00;;;;;;5095244;28;20078;-37
2023/03/25 04:12:13;;;;;;;14.05;3.63;;;16.10;1.00;;;;;;5095149;28;20044;-37
2023/03/25 04:14:41;;;;;;;11.90;3.15;;;16.10;1.00;;;;;;5094723;28;20067;-37
2023/03/25 04:17:07;;;;;;;16.25;3.05;;;16.10;1.00;;;;;;5095090;28;20115;-37
2023/03/25 04:19:34;;;;;;;13.40;3.83;;;16.10;1.00;;;;;;5095019;28;20125;-37
2023/03/25 04:22:02;;;;;;;15.20;3.30;;;16.10;1.00;;;;;;5094753;28;20051;-37
2023/03/25 04:24:30;;;;;;;11.95;3.17;;;16.10;1.00;;;;;;5094183;28;20484;-37
2023/03/25 04:27:02;;;;;;;14.18;2.50;;;16.10;1.00;;;;;;5094957;28;20060;-37
2023/03/25 04:29:30;;;;;;;13.23;2.55;;;16.10;1.00;;;;;;5094876;28;20047;-37
2023/03/25 04:31:57;;;;;;;17.92;3.15;;;16.10;1.00;;;;;;5094775;28;20047;-37
2023/03/25 04:34:25;;;;;;;18.95;3.75;;;16.00;1.00;;;;;;5093908;28;20071;-37
2023/03/25 04:36:53;;;;;;;14.85;3.78;;;16.00;1.00;;;;;;5094710;28;20039;-37
2023/03/25 04:39:22;;;;;;;9.88;2.97;;;16.00;1.00;;;;;;5094781;28;20054;-37
2023/03/25 04:41:52;;;;;;;13.48;3.65;;;16.00;1.00;;;;;;5094512;28;20544;-37
2023/03/25 04:44:20;;;;;;;16.77;3.30;;;16.00;1.00;;;;;;5093887;28;20479;-37
2023/03/25 04:46:47;;;;;;;18.70;3.92;;;16.00;1.00;;;;;;5094549;28;20502;-37
2023/03/25 04:49:20;;;;;;;23.48;3.22;;;16.00;1.00;;;;;;5094183;28;20063;-37
2023/03/25 04:51:50;;;;;;;14.70;3.60;;;16.00;1.00;;;;;;5094679;28;20044;-37
2023/03/25 04:54:19;;;;;;;16.05;3.63;;;16.00;1.00;;;;;;5093613;28;20127;-37
2023/03/25 04:56:48;;;;;;;16.50;2.92;;;16.00;1.00;;;;;;5094335;28;20411;-37
2023/03/25 04:59:20;;;;;;;12.60;2.20;;;16.00;1.00;;;;;;5094250;28;20046;-37
2023/03/25 05:01:47;;;;;;;14.95;3.33;;;16.00;1.00;;;;;;5094110;28;20040;-37
2023/03/25 05:04:15;;;;;;;14.57;3.40;;;16.00;1.00;;;;;;5093520;28;20050;-37
2023/03/25 05:06:45;;;;;;;14.93;3.55;;;16.00;1.00;;;;;;5094062;28;20032;-37
2023/03/25 05:09:15;;;;;;;14.55;3.28;;;15.90;1.00;;;;;;5094033;28;20040;-37
2023/03/25 05:11:42;;;;;;;12.73;3.45;;;16.00;1.00;;;;;;5093986;28;20047;-37
2023/03/25 05:14:11;;;;;;;13.10;2.85;;;15.90;1.00;;;;;;5093226;28;20058;-37
2023/03/25 05:16:38;;;;;;;17.00;4.20;;;16.00;1.00;;;;;;5092880;28;20054;-37
2023/03/25 05:19:05;;;;;;;15.68;2.63;;;15.90;1.00;;;;;;5093847;28;20044;-37
2023/03/25 05:21:37;;;;;;;16.02;2.90;;;15.90;1.00;;;;;;5093820;28;20477;-37
2023/03/25 05:24:09;;;;;;;13.13;3.85;;;15.90;1.00;;;;;;5093050;28;20109;-37
2023/03/25 05:26:38;;;;;;;19.02;4.60;;;15.90;1.00;;;;;;5093634;28;20039;-37
2023/03/25 05:29:13;;;;;;;10.75;2.53;;;15.90;1.00;;;;;;5093665;28;20117;-37
2023/03/25 05:31:41;;;;;;;15.60;4.07;;;15.90;1.00;;;;;;5093677;28;20075;-37
2023/03/25 05:34:08;;;;;;;20.27;3.72;;;15.90;1.00;;;;;;5092884;28;20411;-37
2023/03/25 05:36:35;;;;;;;13.73;2.53;;;15.90;1.00;;;;;;5093498;28;20051;-37
2023/03/25 05:39:03;;;;;;;10.20;2.83;;;15.90;1.00;;;;;;5093257;28;20047;-37
2023/03/25 05:41:37;;;;;;;10.70;2.78;;;15.90;1.00;;;;;;5093309;28;20048;-37
2023/03/25 05:44:05;;;;;;;12.63;3.05;;;15.90;1.00;;;;;;5092613;28;20048;-37
2023/03/25 05:46:33;;;;;;;15.38;3.13;;;15.90;1.00;;;;;;5077213;28;20066;-37
2023/03/25 05:49:00;;;;;;;13.35;3.22;;;15.90;1.00;;;;;;5074512;28;20970;-37
2023/03/25 05:51:32;;;;;;;13.80;3.55;;;15.90;1.00;;;;;;5089797;28;20036;-37
2023/03/25 05:54:00;;;;;;;12.27;3.47;;;15.80;1.00;;;;;;5092456;28;20048;-37
2023/03/25 05:56:28;;;;;;;17.27;3.45;;;15.80;1.00;;;;;;5093375;28;20326;-37
2023/03/25 05:58:56;;;;;;;10.30;2.00;;;15.80;1.00;;;;;;5092868;28;20465;-37
2023/03/25 06:01:23;;;;;;;13.35;3.75;;;15.80;1.00;;;;;;5092781;28;20372;-37
2023/03/25 06:04:01;;;;;;;13.73;2.38;;;15.80;1.00;;;;;;5092119;28;20491;-37
2023/03/25 06:06:30;;;;;;;10.90;2.92;;;15.80;1.00;;;;;;5092950;28;20487;-37
2023/03/25 06:08:58;;;;;;;8.70;2.45;;;15.80;1.00;;;;;;5092819;28;20040;-37
2023/03/25 06:11:25;;;;;;;9.88;2.80;;;15.80;1.00;;;;;;5092708;28;20047;-37
2023/03/25 06:13:51;;;;;;;13.90;2.85;;;15.80;1.00;;;;;;5092410;28;20046;-37
2023/03/25 06:16:22;;;;;;;13.27;2.03;;;15.80;1.00;;;;;;5088015;28;20313;-37
2023/03/25 06:18:54;;;;;;;13.60;2.92;;;15.80;1.00;;;;;;5078186;28;20052;-37
2023/03/25 06:21:22;;;;;;;13.63;3.85;;;15.80;1.00;;;;;;5078963;28;20467;-37
2023/03/25 06:23:50;;;;;;;8.52;2.20;;;15.70;1.00;;;;;;5090890;28;20042;-37
2023/03/25 06:26:18;;;;;;;12.48;2.83;;;15.70;1.00;;;;;;5082373;28;20563;-37
2023/03/25 06:28:45;;;;;;;11.07;2.28;;;15.70;1.00;;;;;;5074084;28;20056;-37
2023/03/25 06:31:15;;;;;;;7.35;2.30;;;15.70;1.00;;;;;;5091627;28;20040;-37
2023/03/25 06:33:43;;;;;;;11.85;2.08;;;15.70;1.00;;;;;;5091883;28;20047;-37
2023/03/25 06:36:11;;;;;;;13.20;2.42;;;15.70;1.00;;;;;;5092409;28;20044;-37
2023/03/25 06:38:39;;;;;;;14.02;2.83;;;15.70;1.00;;;;;;5092292;28;20048;-37
2023/03/25 06:41:12;;;;;;;;;;;15.70;1.00;;;;;;5091546;28;20392;-37
2023/03/25 06:43:40;;;;;;;14.13;2.45;;;15.70;1.00;;;;;;5089949;28;20371;-37
2023/03/25 06:46:26;;;;;;;8.05;2.15;;;15.70;1.00;;;;;;5086923;28;20054;-37
2023/03/25 06:49:19;;;;;;;16.65;3.25;;;15.70;1.00;;;;;;5079976;28;20052;-37
2023/03/25 06:51:46;;;;;;;19.88;2.10;;;15.70;1.00;;;;;;5081454;28;20051;-37
2023/03/25 06:54:14;;;;;;;13.30;3.00;;;15.70;1.00;;;;;;5086981;28;20039;-37
2023/03/25 06:56:40;;;;;;;17.00;3.13;;;15.70;1.00;;;;;;5089159;28;20093;-37
2023/03/25 06:59:07;;;;;;;17.73;2.50;;;15.70;1.00;;;;;;5087819;28;20085;-38
2023/03/25 07:01:35;;;;;;;23.83;3.25;;;15.70;1.00;;;;;;5088904;28;20042;-38
2023/03/25 07:04:02;;;;;;;12.98;3.38;;;15.70;1.00;;;;;;5082126;28;20421;-38
2023/03/25 07:06:30;;;;;;;13.75;2.85;;;15.70;1.00;;;;;;5090961;28;20093;-37
2023/03/25 07:08:57;;;;;;;13.25;2.25;;;15.70;1.00;;;;;;5083921;28;20039;-37
2023/03/25 07:11:28;;;;;;;14.95;2.90;;;15.70;1.00;;;;;;5079131;28;20040;-37
2023/03/25 07:13:55;;;;;;;11.48;2.70;;;15.70;1.00;;;;;;5083943;28;20068;-37
2023/03/25 07:16:24;;;;;;;14.30;2.40;;;15.70;1.00;;;;;;5078460;28;20495;-37
2023/03/25 07:18:53;;;;;;;11.27;2.67;;;15.70;1.00;;;;;;5083598;28;20036;-37
2023/03/25 07:21:20;;;;;;;7.70;1.95;;;15.70;1.00;;;;;;5079329;28;20048;-37
2023/03/25 07:23:47;;;;;;;12.77;2.97;;;15.70;1.00;;;;;;5080390;28;20040;-37
2023/03/25 07:26:14;;;;;;;9.82;1.85;;;15.70;1.00;;;;;;5083151;28;20032;-37
2023/03/25 07:28:41;;;;;;;12.73;2.95;;;15.70;1.00;;;;;;5091331;28;20044;-37
2023/03/25 07:31:11;;;;;;;14.85;3.30;;;15.70;1.00;;;;;;5087249;28;20403;-37
2023/03/25 07:33:38;;;;;;;17.35;2.67;;;15.70;1.00;;;;;;5087020;28;20040;-37
2023/03/25 07:36:07;;;;;;;15.00;2.35;;;15.70;1.00;;;;;;5090178;28;20391;-37
2023/03/25 07:38:35;;;;;;;10.88;2.55;;;15.70;1.00;;;;;;5086891;28;20044;-37
2023/03/25 07:41:11;;;;;;;13.25;2.40;;;15.70;1.00;;;;;;5089155;28;20040;-37
2023/03/25 07:43:44;;;;;;;13.30;2.20;;;15.80;1.00;;;;;;5089499;28;20086;-37
2023/03/25 07:46:24;;;;;;;16.13;3.33;;;15.70;1.00;;;;;;5088343;28;20506;-37
2023/03/25 07:48:51;;;;;;;14.95;3.30;;;15.70;1.00;;;;;;5076347;28;20499;-37
2023/03/25 07:51:18;;;;;;;11.43;3.20;;;15.70;1.00;;;;;;5075145;28;20067;-37
2023/03/25 07:53:45;;;;;;;11.77;2.72;;;15.70;1.00;;;;;;5083645;28;20044;-37
2023/03/25 07:56:13;;;;;;;15.93;3.15;;;15.80;1.00;;;;;;5087825;28;20138;-37
2023/03/25 07:58:40;;;;;;;11.45;2.55;;;15.80;1.00;;;;;;5094069;28;20566;-37
2023/03/25 08:01:08;;;;;;;8.30;2.63;;;15.80;1.00;;;;;;5094180;28;20047;-37
2023/03/25 08:03:37;;;;;;;11.52;2.28;;;15.70;1.00;;;;;;5094145;28;20040;-37
2023/03/25 08:06:05;;;;;;;11.90;2.10;;;15.80;1.00;;;;;;5090555;28;20479;-37
2023/03/25 08:08:32;;;;;;;13.00;3.35;;;15.80;1.00;;;;;;5094874;28;20044;-38
2023/03/25 08:11:00;;;;;;;13.10;2.95;;;15.80;1.00;;;;;;5083734;28;20488;-37
2023/03/25 08:13:27;;;;;;;14.43;2.92;;;15.80;1.00;;;;;;5074029;28;20135;-37
2023/03/25 08:15:54;;;;;;;10.98;2.67;;;15.80;1.00;;;;;;5075059;28;20120;-37
2023/03/25 08:18:21;;;;;;;15.82;4.05;;;15.80;1.00;;;;;;5074685;28;20045;-37
2023/03/25 08:20:52;;;;;;;12.95;3.30;;;15.80;1.00;;;;;;5074596;28;20044;-37
2023/03/25 08:23:21;;;;;;;16.70;3.00;;;15.70;1.00;;;;;;5073755;28;20086;-37
2023/03/25 08:25:49;;;;;;;15.07;2.53;;;15.80;1.00;;;;;;5074472;28;20055;-38
2023/03/25 08:28:22;;;;;;;11.80;2.78;;;15.80;1.00;;;;;;5074510;28;20475;-38
2023/03/25 08:30:53;;;;;;;16.08;2.30;;;15.80;1.00;;;;;;5074505;28;20381;-37
2023/03/25 08:33:32;;;;;;;13.15;2.42;;;15.80;1.00;;;;;;5073749;28;20044;-38
2023/03/25 08:36:01;;;;;;;15.75;2.42;;;15.80;1.00;;;;;;5074280;28;20127;-38
2023/03/25 08:38:31;;;;;;;10.15;2.63;;;15.80;1.00;;;;;;5074042;28;20036;-38
2023/03/25 08:41:02;;;;;;;18.25;2.90;;;15.80;1.00;;;;;;5072930;28;20040;-37
2023/03/25 08:43:29;;;;;;;12.50;2.13;;;15.80;1.00;;;;;;5073380;28;20072;-37
2023/03/25 08:45:55;;;;;;;12.48;2.05;;;15.80;1.00;;;;;;5074245;28;20045;-37
2023/03/25 08:48:23;;;;;;;14.98;3.05;;;15.80;1.00;;;;;;5073992;28;20033;-38
2023/03/25 08:50:50;;;;;;;10.60;2.13;;;15.80;1.00;;;;;;5073997;28;20098;-38
2023/03/25 08:53:17;;;;;;;10.35;2.60;;;15.80;1.00;;;;;;5073406;28;20075;-37
2023/03/25 08:55:44;;;;;;;13.23;2.35;;;15.80;1.00;;;;;;5074124;28;20499;-37
2023/03/25 08:58:11;;;;;;;10.65;2.33;;;15.80;1.00;;;;;;5073976;28;20045;-38
2023/03/25 09:00:38;;;;;;;11.45;2.92;;;15.80;1.00;;;;;;5072756;28;20058;-37
2023/03/25 09:03:05;;;;;;;14.38;2.65;;;15.80;1.00;;;;;;5073178;28;20525;-38
2023/03/25 09:05:35;;;;;;;14.98;3.10;;;15.80;1.00;;;;;;5073777;28;20098;-38
2023/03/25 09:08:02;;;;;;;11.27;2.60;;;15.80;1.00;;;;;;5072532;28;20052;-38
2023/03/25 09:10:29;;;;;;;7.32;2.25;;;15.80;1.00;;;;;;5073687;28;20094;-37
2023/03/25 09:12:56;;;;;;;13.90;3.25;;;15.80;1.00;;;;;;5072998;28;20539;-37
2023/03/25 09:15:23;;;;;;;13.65;2.88;;;15.80;1.00;;;;;;5084925;28;20123;-37
2023/03/25 09:17:50;;;;;;;12.32;2.55;;;15.70;1.00;;;;;;5098824;28;20389;-37
2023/03/25 09:20:17;;;;;;;10.48;2.78;;;15.80;1.00;;;;;;5093601;28;20480;-38
2023/03/25 09:22:44;;;;;;;12.75;2.88;;;15.70;1.00;;;;;;5093675;28;20097;-38
2023/03/25 09:25:12;;;;;;;13.93;2.60;;;15.80;1.00;;;;;;5105977;28;20237;-37
2023/03/25 09:27:39;;;;;;;13.27;2.85;;;15.80;1.00;;;;;;5093525;28;20115;-38
2023/03/25 09:30:07;;;;;;;14.43;3.58;;;15.80;1.00;;;;;;5091762;28;20028;-37
2023/03/25 09:32:35;;;;;;;13.85;3.08;;;15.80;1.00;;;;;;5091540;28;20418;-38
2023/03/25 09:35:02;;;;;;;14.30;3.08;;;15.80;1.00;;;;;;5093168;28;20139;-38
2023/03/25 09:37:31;;;;;;;16.45;2.83;;;15.80;1.00;;;;;;5093344;28;20044;-38
2023/03/25 09:39:58;;;;;;;12.52;2.97;;;15.80;1.00;;;;;;5093160;28;20115;-38
2023/03/25 09:42:58;;;;;;;11.55;2.72;;;15.80;1.00;;;;;;5092831;28;20471;-38
2023/03/25 09:45:41;;;;;;;10.88;1.83;;;15.80;1.00;;;;;;5093524;28;20043;-38
2023/03/25 09:48:26;;;;;;;15.73;2.78;;;15.80;1.00;;;;;;5093098;28;20043;-38
2023/03/25 09:50:53;;;;;;;10.85;2.67;;;15.80;1.00;;;;;;5093616;28;20089;-38
2023/03/25 09:53:35;;;;;;;15.75;3.00;;;15.80;1.00;;;;;;5092132;28;20048;-38
2023/03/25 09:56:06;;;;;;;16.08;3.13;;;15.80;1.00;;;;;;5093291;28;20453;-37
2023/03/25 09:58:47;;;;;;;11.30;2.40;;;15.80;1.00;;;;;;5092946;28;20276;-38
2023/03/25 10:01:36;;;;;;;12.65;2.40;;;15.80;1.00;;;;;;5076734;28;20048;-37
2023/03/25 10:04:31;;;;;;;11.82;2.88;;;15.80;1.00;;;;;;5071301;28;20119;-37
2023/03/25 10:07:18;;;;;;;11.48;2.50;;;15.80;1.00;;;;;;5072675;28;20036;-37
2023/03/25 10:10:09;;;;;;;22.60;3.45;;;15.90;1.00;;;;;;5071442;28;20041;-37
2023/03/25 10:12:41;;;;;;;12.38;2.08;;;15.90;1.00;;;;;;5072201;28;20033;-37
2023/03/25 10:15:27;;;;;;;10.57;2.75;;;15.90;1.00;;;;;;5072378;28;20043;-37
2023/03/25 10:18:23;;;;;;;12.35;2.92;;;15.90;1.00;;;;;;5072914;28;20058;-38
2023/03/25 10:21:11;;;;;;;15.40;3.70;;;15.90;1.00;;;;;;5072199;28;20066;-38
2023/03/25 10:23:49;;;;;;;15.77;3.78;;;15.90;1.00;;;;;;5071469;28;20079;-38
2023/03/25 10:26:21;;;;;;;9.52;2.97;;;15.90;1.00;;;;;;5072261;28;20041;-38
2023/03/25 10:28:55;;;;;;;10.95;2.42;;;15.90;1.00;;;;;;5071967;28;20040;-38
2023/03/25 10:31:24;;;;;;;;;;;15.90;1.00;;;;;;5072558;28;20048;-38
2023/03/25 10:33:58;;;;;;;15.90;2.78;;;15.90;1.00;;;;;;5071357;28;19920;-38
2023/03/25 10:36:35;;;;;;;14.98;3.15;;;15.90;1.00;;;;;;5071986;28;20128;-38
2023/03/25 10:39:05;;;;;;;18.77;3.83;;;15.90;1.00;;;;;;5071796;28;20041;-38
2023/03/25 10:41:38;;;;;;;16.95;3.67;;;15.90;1.00;;;;;;5071912;28;20488;-38
2023/03/25 10:44:09;;;;;;;15.15;3.03;;;15.90;1.00;;;;;;5071117;28;20040;-38
2023/03/25 10:46:51;;;;;;;13.82;2.60;;;16.00;1.00;;;;;;5071889;28;20464;-38
2023/03/25 10:49:22;;;;;;;11.88;1.88;;;16.00;1.00;;;;;;5071685;28;20037;-38
2023/03/25 10:51:55;;;;;;;10.98;2.47;;;15.90;1.00;;;;;;5071642;28;20442;-37
2023/03/25 10:54:26;;;;;;;13.15;2.60;;;16.00;1.00;;;;;;5071103;28;20044;-37
2023/03/25 10:56:58;;;;;;;16.38;4.05;;;16.00;1.00;;;;;;5071857;28;20074;-38
2023/03/25 10:59:44;;;;;;;12.15;2.65;;;16.00;1.00;;;;;;5071296;28;20119;-37
2023/03/25 11:02:19;;;;;;;13.77;3.05;;;16.00;1.00;;;;;;5089234;28;20039;-38
2023/03/25 11:04:49;;;;;;;20.35;3.15;;;16.00;1.00;;;;;;5093626;28;20040;-38
2023/03/25 11:07:25;;;;;;;16.95;3.60;;;16.00;1.00;;;;;;5094643;28;20051;-37
2023/03/25 11:09:52;;;;;;;13.18;2.38;;;16.00;1.00;;;;;;5112344;28;20531;-37
2023/03/25 11:12:21;;;;;;;15.23;4.00;;;16.00;1.00;;;;;;5111760;28;20054;-38
2023/03/25 11:15:17;;;;;;;12.27;3.08;;;16.10;1.00;;;;;;5114380;28;20418;-37
2023/03/25 11:17:46;;;;;;;13.05;2.63;;;16.00;1.00;;;;;;5116746;28;20044;-38
2023/03/25 11:20:20;;;;;;;12.07;2.85;;;16.00;1.00;;;;;;5079106;28;20044;-37
2023/03/25 11:22:50;;;;;;;12.10;2.25;;;16.10;1.00;;;;;;5074778;28;20484;-37
2023/03/25 11:25:25;;;;;;;17.90;3.05;;;16.10;1.00;;;;;;5075877;28;20062;-37
2023/03/25 11:27:57;;;;;;;13.82;2.50;;;16.10;1.00;;;;;;5075598;28;20032;-38
2023/03/25 11:30:24;;;;;;;12.88;2.95;;;16.10;1.00;;;;;;5075491;28;20076;-37
2023/03/25 11:33:11;;;;;;;13.18;3.58;;;16.10;1.00;;;;;;5091905;28;20044;-37
2023/03/25 11:36:23;;;;;;;14.68;2.92;;;16.10;1.00;;;;;;5069243;28;20441;-37
2023/03/25 11:38:59;;;;;;;13.68;2.60;;;16.10;1.00;;;;;;5059999;28;20037;-37
2023/03/25 11:41:32;;;;;;;10.75;3.08;;;16.10;1.00;;;;;;5046231;28;20071;-37
2023/03/25 11:44:00;;;;;;;10.45;2.35;;;16.10;1.00;;;;;;5045251;28;20053;-37
2023/03/25 11:46:27;;;;;;;14.18;2.40;;;16.10;1.00;;;;;;5046494;28;20037;-37
2023/03/25 11:48:54;;;;;;;14.68;2.95;;;16.10;1.00;;;;;;5046934;28;20055;-37
2023/03/25 11:51:28;;;;;;;14.23;3.72;;;16.10;1.00;;;;;;5047025;28;20041;-37
2023/03/25 11:54:06;;;;;;;14.00;3.30;;;16.10;1.00;;;;;;5045899;28;20112;-37
2023/03/25 11:56:36;;;;;;;19.25;3.60;;;16.10;1.00;;;;;;5047166;28;20435;-37
2023/03/25 11:59:19;;;;;;;10.77;2.22;;;16.20;1.00;;;;;;5046551;28;20452;-37
2023/03/25 12:01:48;;;;;;;12.13;2.38;;;16.10;1.00;;;;;;5046672;28;20378;-37
2023/03/25 12:04:21;;;;;;;13.55;2.65;;;16.10;1.00;;;;;;5045780;28;20056;-37
2023/03/25 12:07:07;;;;;;;13.02;2.63;;;16.20;1.00;;;;;;5046476;28;20083;-37
2023/03/25 12:09:34;;;;;;;9.32;2.92;;;16.20;1.00;;;;;;5046505;28;20045;-37
2023/03/25 12:12:34;;;;;;;9.60;2.00;;;16.10;1.00;;;;;;5046454;28;20511;-37
2023/03/25 12:15:21;;;;;;;15.57;4.00;;;16.20;1.00;;;;;;5045635;28;20112;-37
2023/03/25 12:18:16;;;;;;;11.35;2.67;;;16.20;1.00;;;;;;5046054;28;20068;-37
2023/03/25 12:21:03;;;;;;;19.65;3.55;;;16.20;1.00;;;;;;5046028;28;20033;-37
2023/03/25 12:23:48;;;;;;;12.85;2.92;;;16.20;1.00;;;;;;5045734;28;20568;-37
2023/03/25 12:26:43;;;;;;;17.65;3.10;;;16.20;1.00;;;;;;5046279;28;20041;-37
2023/03/25 12:29:40;;;;;;;10.82;3.03;;;16.20;1.00;;;;;;5017295;28;20053;-37
2023/03/25 12:32:16;;;;;;;16.83;4.13;;;16.20;1.00;;;;;;5046032;28;20049;-37
2023/03/25 12:34:48;;;;;;;12.73;3.25;;;16.20;1.00;;;;;;5045709;28;20408;-37
2023/03/25 12:37:36;;;;;;;12.40;2.60;;;16.20;1.00;;;;;;5045966;28;20072;-37
2023/03/25 12:40:44;;;;;;;12.00;2.60;;;16.20;1.00;;;;;;5046152;28;20424;-37
2023/03/25 12:43:35;;;;;;;15.48;3.05;;;16.20;1.00;;;;;;4944824;29;20602;-37
2023/03/25 12:46:06;;;;;;;12.70;2.60;;;16.20;1.00;;;;;;5039482;28;20525;-37
2023/03/25 12:49:05;;;;;;;15.25;2.25;;;16.20;1.00;;;;;;5032545;28;20041;-37
2023/03/25 12:51:40;;;;;;;10.50;3.25;;;16.20;1.00;;;;;;5032409;28;20049;-37
2023/03/25 12:54:45;;;;;;;9.52;2.47;;;16.20;1.00;;;;;;5031494;28;20041;-37
2023/03/25 12:57:28;;;;;;;11.60;2.78;;;16.20;1.00;;;;;;5032497;28;20034;-37
2023/03/25 13:00:33;;;;;;;18.35;3.55;;;16.20;1.00;;;;;;5032520;28;20473;-37
2023/03/25 13:03:18;;;;;;;14.65;3.72;;;16.20;1.00;;;;;;5031479;28;20064;-37
2023/03/25 13:06:21;;;;;;;12.15;2.45;;;16.20;1.00;;;;;;5032387;28;20048;-37
2023/03/25 13:09:23;;;;;;;11.85;2.25;;;16.20;1.00;;;;;;5031596;28;20042;-37
2023/03/25 13:11:52;;;;;;;11.80;3.45;;;16.20;1.00;;;;;;5032040;28;20057;-37
2023/03/25 13:14:43;;;;;;;8.23;2.50;;;16.20;1.00;;;;;;5031372;28;20052;-37
2023/03/25 13:17:25;;;;;;;13.50;2.90;;;16.20;1.00;;;;;;5031952;28;20041;-37
2023/03/25 13:19:57;;;;;;;12.63;2.85;;;16.20;1.00;;;;;;5031826;28;20116;-37